createdAt,value
2018-08-24T00:03:44.687Z,8.85
2018-08-24T00:08:47.899Z,8.55
2018-08-24T00:13:51.111Z,9.10
2018-08-24T00:18:55.186Z,8.53
2018-08-24T00:23:58.396Z,9.08
2018-08-24T00:29:01.640Z,11.40
2018-08-24T00:34:05.136Z,9.95
2018-08-24T00:39:09.272Z,11.90
2018-08-24T00:44:12.631Z,12.13
2018-08-24T00:49:15.864Z,10.53
2018-08-24T00:54:19.082Z,10.63
2018-08-24T00:59:22.303Z,9.40
2018-08-24T01:04:30.927Z,10.00
2018-08-24T01:09:34.611Z,9.40
2018-08-24T01:14:38.349Z,9.50
2018-08-24T01:19:42.121Z,9.13
2018-08-24T01:24:45.326Z,9.30
2018-08-24T01:29:48.564Z,9.90
2018-08-24T01:34:52.546Z,11.07
2018-08-24T01:39:55.758Z,11.03
2018-08-24T01:44:58.997Z,9.38
2018-08-24T01:50:02.222Z,10.43
2018-08-24T01:55:05.892Z,10.35
2018-08-24T02:00:09.128Z,10.93
2018-08-24T02:05:12.472Z,11.37
2018-08-24T02:10:33.345Z,10.18
2018-08-24T02:15:40.820Z,10.63
2018-08-24T02:20:49.542Z,10.78
2018-08-24T02:25:52.780Z,10.10
2018-08-24T02:30:55.989Z,9.20
2018-08-24T02:35:59.200Z,8.55
2018-08-24T02:41:02.400Z,9.20
2018-08-24T02:46:05.670Z,8.50
2018-08-24T02:51:08.891Z,8.45
2018-08-24T02:56:12.714Z,9.40
2018-08-24T03:01:15.930Z,9.73
2018-08-24T03:06:19.800Z,8.93
2018-08-24T03:11:23.104Z,9.35
2018-08-24T03:16:26.412Z,8.77
2018-08-24T03:21:29.533Z,8.98
2018-08-24T03:26:32.744Z,8.63
2018-08-24T03:31:36.014Z,9.00
2018-08-24T03:36:39.219Z,8.13
2018-08-24T03:41:42.448Z,9.18
2018-08-24T03:46:45.672Z,10.40
2018-08-24T03:51:48.944Z,9.85
2018-08-24T03:56:54.296Z,9.77
2018-08-24T04:01:57.542Z,9.88
2018-08-24T04:07:00.779Z,10.20
2018-08-24T04:12:04.057Z,9.90
2018-08-24T04:17:12.809Z,11.10
2018-08-24T04:22:16.022Z,10.47
2018-08-24T04:27:19.283Z,10.93
2018-08-24T04:32:22.473Z,11.33
2018-08-24T04:37:25.709Z,12.60
2018-08-24T04:42:28.942Z,13.77
2018-08-24T04:47:32.948Z,14.33
2018-08-24T04:52:36.180Z,17.15
2018-08-24T04:57:39.944Z,17.97
2018-08-24T05:02:43.146Z,20.47
2018-08-24T05:07:46.382Z,22.82
2018-08-24T05:12:49.588Z,24.80
2018-08-24T05:17:52.816Z,25.80
2018-08-24T05:22:56.050Z,27.47
2018-08-24T05:27:59.268Z,27.62
2018-08-24T05:33:02.471Z,29.63
2018-08-24T05:38:06.032Z,33.58
2018-08-24T05:43:09.862Z,38.25
2018-08-24T05:48:13.067Z,38.88
2018-08-24T05:53:16.288Z,36.60
2018-08-24T05:58:19.475Z,38.40
2018-08-24T06:03:22.759Z,40.12
2018-08-24T06:08:25.954Z,36.80
2018-08-24T06:13:29.276Z,38.38
2018-08-24T06:18:32.481Z,37.50
2018-08-24T06:23:35.698Z,35.78
2018-08-24T06:28:38.895Z,37.63
2018-08-24T06:33:42.095Z,36.05
2018-08-24T06:38:45.338Z,33.28
2018-08-24T06:43:48.586Z,28.80
2018-08-24T06:48:51.828Z,23.38
2018-08-24T06:53:55.149Z,21.83
2018-08-24T06:58:58.335Z,20.62
2018-08-24T07:04:01.768Z,18.30
2018-08-24T07:09:06.534Z,16.55
2018-08-24T07:14:09.829Z,15.00
2018-08-24T07:19:13.043Z,13.20
2018-08-24T07:24:16.435Z,12.82
2018-08-24T07:29:19.835Z,10.55
2018-08-24T07:34:23.076Z,10.40
2018-08-24T07:39:26.268Z,9.03
2018-08-24T07:44:29.504Z,8.80
2018-08-24T07:49:32.751Z,6.75
2018-08-24T07:54:36.042Z,5.55
2018-08-24T07:59:39.592Z,5.08
2018-08-24T08:04:42.806Z,5.00
2018-08-24T08:09:46.036Z,4.10
2018-08-24T08:14:54.839Z,4.42
2018-08-24T08:19:58.098Z,4.30
2018-08-24T08:25:01.329Z,3.47
2018-08-24T08:30:05.768Z,4.70
2018-08-24T08:35:09.343Z,3.55
2018-08-24T08:40:12.566Z,3.08
2018-08-24T08:45:15.802Z,2.65
2018-08-24T08:50:19.028Z,3.30
2018-08-24T08:55:22.256Z,5.47
2018-08-24T09:00:25.503Z,3.30
2018-08-24T09:05:28.720Z,3.17
2018-08-24T09:10:32.022Z,3.03
2018-08-24T09:15:35.378Z,3.00
2018-08-24T09:20:44.096Z,2.80
2018-08-24T09:25:52.702Z,2.90
2018-08-24T09:31:03.076Z,3.15
2018-08-24T09:36:11.800Z,3.00
2018-08-24T09:41:15.047Z,3.20
2018-08-24T09:46:18.448Z,3.55
2018-08-24T09:51:26.804Z,2.42
2018-08-24T09:56:31.175Z,2.62
2018-08-24T10:01:39.715Z,3.10
2018-08-24T10:06:49.086Z,2.60
2018-08-24T10:11:52.286Z,3.10
2018-08-24T10:16:55.528Z,2.22
2018-08-24T10:21:58.980Z,1.80
2018-08-24T10:27:02.177Z,1.50
2018-08-24T10:32:05.437Z,2.00
2018-08-24T10:37:08.649Z,1.80
2018-08-24T10:42:11.853Z,1.20
2018-08-24T10:47:15.082Z,1.60
2018-08-24T10:52:18.320Z,1.90
2018-08-24T10:57:21.543Z,4.47
2018-08-24T11:02:24.838Z,2.40
2018-08-24T11:07:28.265Z,1.60
2018-08-24T11:12:32.371Z,2.15
2018-08-24T11:17:41.100Z,1.83
2018-08-24T11:22:44.331Z,1.70
2018-08-24T11:27:47.580Z,1.20
2018-08-24T11:32:50.832Z,1.30
2018-08-24T11:37:54.119Z,1.20
2018-08-24T11:42:57.341Z,1.20
2018-08-24T11:48:00.673Z,1.98
2018-08-24T11:53:04.784Z,1.98
2018-08-24T11:58:08.492Z,5.50
2018-08-24T12:03:11.704Z,1.47
2018-08-24T12:08:14.991Z,1.10
2018-08-24T12:13:19.067Z,1.62
2018-08-24T12:18:22.325Z,1.30
2018-08-24T12:23:25.511Z,1.80
2018-08-24T12:28:28.748Z,2.90
2018-08-24T12:33:31.965Z,2.12
2018-08-24T12:38:35.206Z,1.50
2018-08-24T12:43:38.601Z,1.60
2018-08-24T12:48:41.760Z,2.42
2018-08-24T12:53:44.988Z,4.83
2018-08-24T12:58:49.052Z,1.45
2018-08-24T13:03:52.263Z,1.60
2018-08-24T13:08:55.496Z,1.83
2018-08-24T13:13:58.723Z,1.40
2018-08-24T13:19:01.920Z,1.40
2018-08-24T13:24:05.159Z,1.30
2018-08-24T13:29:08.462Z,1.10
2018-08-24T13:34:11.719Z,1.77
2018-08-24T13:39:14.956Z,2.30
2018-08-24T13:44:18.312Z,1.10
2018-08-24T13:49:21.796Z,1.00
2018-08-24T13:54:25.012Z,1.40
2018-08-24T13:59:28.277Z,2.05
2018-08-24T14:04:31.448Z,1.70
2018-08-24T14:09:34.663Z,1.53
2018-08-24T14:14:37.877Z,1.70
2018-08-24T14:19:41.082Z,1.25
2018-08-24T14:24:44.348Z,1.40
2018-08-24T14:29:47.559Z,1.40
2018-08-24T14:34:50.786Z,1.70
2018-08-24T14:39:54.040Z,1.65
2018-08-24T14:44:57.274Z,1.42
2018-08-24T14:50:00.491Z,1.80
2018-08-24T14:55:03.752Z,1.47
2018-08-24T15:00:06.963Z,1.50
2018-08-24T15:05:11.387Z,1.90
2018-08-24T15:10:14.593Z,1.67
2018-08-24T15:15:17.794Z,1.60
2018-08-24T15:20:21.033Z,4.17
2018-08-24T15:25:24.304Z,2.67
2018-08-24T15:30:27.580Z,5.62
2018-08-24T15:35:30.826Z,2.17
2018-08-24T15:40:34.032Z,1.80
2018-08-24T15:45:38.134Z,1.40
2018-08-24T15:50:41.366Z,1.82
2018-08-24T15:55:45.502Z,1.40
2018-08-24T16:00:48.837Z,1.60
2018-08-24T16:05:52.035Z,1.40
2018-08-24T16:10:55.260Z,1.80
2018-08-24T16:15:58.530Z,1.60
2018-08-24T16:21:01.724Z,2.00
2018-08-24T16:26:04.967Z,3.37
2018-08-24T16:31:08.205Z,1.75
2018-08-24T16:36:12.403Z,1.42
2018-08-24T16:41:15.609Z,1.60
2018-08-24T16:46:18.843Z,1.77
2018-08-24T16:51:22.483Z,1.95
2018-08-24T16:56:25.672Z,1.60
2018-08-24T17:01:28.894Z,1.57
2018-08-24T17:06:32.130Z,1.95
2018-08-24T17:11:35.351Z,7.23
2018-08-24T17:16:38.575Z,3.17
2018-08-24T17:21:41.781Z,1.98
2018-08-24T17:26:44.986Z,2.62
2018-08-24T17:31:48.194Z,1.57
2018-08-24T17:36:51.392Z,3.33
2018-08-24T17:41:54.674Z,2.47
2018-08-24T17:46:57.816Z,2.90
2018-08-24T17:52:01.146Z,1.22
2018-08-24T17:57:04.313Z,1.40
2018-08-24T18:02:07.589Z,1.50
2018-08-24T18:07:10.817Z,1.73
2018-08-24T18:12:13.991Z,1.70
2018-08-24T18:17:17.203Z,2.67
2018-08-24T18:22:20.411Z,2.87
2018-08-24T18:27:23.621Z,2.98
2018-08-24T18:32:26.832Z,1.20
2018-08-24T18:37:30.035Z,1.72
2018-08-24T18:42:33.287Z,1.60
2018-08-24T18:47:36.483Z,1.27
2018-08-24T18:52:40.743Z,1.30
2018-08-24T18:57:44.048Z,1.52
2018-08-24T19:02:47.397Z,1.52
2018-08-24T19:07:57.894Z,2.40
2018-08-24T19:13:01.099Z,1.77
2018-08-24T19:18:09.819Z,1.62
2018-08-24T19:23:13.054Z,2.33
2018-08-24T19:28:21.939Z,1.80
2018-08-24T19:33:25.144Z,2.10
2018-08-24T19:38:28.362Z,2.20
2018-08-24T19:43:31.702Z,2.70
2018-08-24T19:48:40.371Z,3.37
2018-08-24T19:53:44.024Z,2.42
2018-08-24T19:58:52.765Z,1.70
2018-08-24T20:03:55.901Z,2.05
2018-08-24T20:09:04.522Z,2.73
2018-08-24T20:14:07.740Z,1.27
2018-08-24T20:19:10.966Z,2.05
2018-08-24T20:24:14.205Z,8.80
2018-08-24T20:29:17.817Z,2.72
2018-08-24T20:34:21.031Z,3.35
2018-08-24T20:39:24.297Z,2.65
2018-08-24T20:44:27.500Z,2.40
2018-08-24T20:49:30.695Z,2.93
2018-08-24T20:54:34.199Z,2.55
2018-08-24T20:59:37.423Z,2.65
2018-08-24T21:04:40.707Z,2.80
2018-08-24T21:09:43.953Z,1.95
2018-08-24T21:14:47.189Z,1.83
2018-08-24T21:19:50.401Z,2.52
2018-08-24T21:24:53.610Z,2.30
2018-08-24T21:29:57.775Z,2.00
2018-08-24T21:35:01.018Z,2.60
2018-08-24T21:40:04.278Z,2.77
2018-08-24T21:45:07.515Z,2.00
2018-08-24T21:50:10.712Z,2.27
2018-08-24T21:55:13.964Z,1.57
2018-08-24T22:00:17.172Z,3.10
2018-08-24T22:05:20.488Z,2.50
2018-08-24T22:10:23.722Z,3.60
2018-08-24T22:15:27.399Z,2.92
2018-08-24T22:20:31.621Z,1.75
2018-08-24T22:25:34.855Z,3.37
2018-08-24T22:30:38.671Z,5.30
2018-08-24T22:35:41.859Z,2.70
2018-08-24T22:40:45.092Z,1.70
2018-08-24T22:45:48.340Z,2.30
2018-08-24T22:50:51.568Z,1.72
2018-08-24T22:55:54.882Z,1.50
2018-08-24T23:00:58.090Z,1.70
2018-08-24T23:06:01.287Z,1.62
2018-08-24T23:11:05.513Z,1.80
2018-08-24T23:16:08.743Z,1.65
2018-08-24T23:21:11.924Z,2.15
2018-08-24T23:26:15.123Z,2.20
2018-08-24T23:31:18.314Z,2.90
2018-08-24T23:36:21.523Z,1.92
2018-08-24T23:41:24.716Z,2.60
2018-08-24T23:46:27.973Z,2.55
2018-08-24T23:51:31.198Z,1.57
2018-08-24T23:56:34.423Z,1.80
